createdAt,value
2023-05-10T00:00:31.051Z,2.45
2023-05-10T00:02:35.845Z,1.70
2023-05-10T00:04:38.813Z,1.55
2023-05-10T00:06:41.788Z,2.10
2023-05-10T00:08:44.577Z,1.33
2023-05-10T00:10:47.503Z,1.30
2023-05-10T00:12:50.549Z,1.13
2023-05-10T00:14:53.410Z,1.50
2023-05-10T00:16:56.387Z,1.27
2023-05-10T00:19:00.752Z,1.52
2023-05-10T00:21:03.590Z,1.70
2023-05-10T00:23:06.554Z,1.90
2023-05-10T00:25:10.990Z,2.70
2023-05-10T00:27:13.792Z,3.20
2023-05-10T00:29:16.618Z,3.30
2023-05-10T00:31:19.428Z,3.08
2023-05-10T00:33:22.234Z,3.22
2023-05-10T00:35:26.965Z,3.70
2023-05-10T00:37:30.157Z,3.83
2023-05-10T00:39:32.973Z,3.42
2023-05-10T00:41:35.883Z,3.10
2023-05-10T00:43:40.919Z,2.60
2023-05-10T00:45:43.999Z,2.53
2023-05-10T00:47:47.214Z,2.42
2023-05-10T00:49:50.162Z,2.10
2023-05-10T00:51:54.458Z,2.03
2023-05-10T00:53:57.777Z,2.13
2023-05-10T00:56:02.226Z,2.03
2023-05-10T00:58:05.302Z,2.85
2023-05-10T01:00:09.344Z,3.70
2023-05-10T01:02:12.770Z,4.00
2023-05-10T01:04:17.224Z,2.78
2023-05-10T01:06:20.097Z,2.70
2023-05-10T01:08:24.432Z,2.58
2023-05-10T01:10:27.471Z,2.05
2023-05-10T01:12:30.553Z,1.90
2023-05-10T01:14:33.482Z,2.22
2023-05-10T01:16:39.511Z,2.35
2023-05-10T01:18:43.933Z,1.42
2023-05-10T01:20:50.606Z,1.70
2023-05-10T01:23:16.175Z,1.60
2023-05-10T01:28:03.412Z,1.88
2023-05-10T01:30:45.449Z,1.50
2023-05-10T01:32:57.140Z,1.50
2023-05-10T01:35:04.678Z,1.45
2023-05-10T01:37:11.252Z,1.50
2023-05-10T01:39:19.858Z,1.65
2023-05-10T01:41:30.184Z,1.30
2023-05-10T01:43:36.892Z,1.50
2023-05-10T01:45:49.331Z,1.60
2023-05-10T01:48:00.529Z,1.30
2023-05-10T01:50:06.653Z,1.30
2023-05-10T01:52:13.862Z,1.20
2023-05-10T01:54:19.630Z,1.20
2023-05-10T01:56:28.005Z,1.40
2023-05-10T01:58:33.878Z,1.40
2023-05-10T02:00:38.626Z,1.40
2023-05-10T02:02:44.138Z,1.05
2023-05-10T02:04:51.511Z,1.10
2023-05-10T02:06:56.007Z,1.00
2023-05-10T02:08:59.428Z,1.05
2023-05-10T02:11:04.634Z,1.35
2023-05-10T02:13:08.383Z,1.00
2023-05-10T02:15:13.659Z,1.40
2023-05-10T02:17:17.400Z,1.35
2023-05-10T02:19:22.238Z,1.33
2023-05-10T02:21:27.337Z,1.73
2023-05-10T02:23:30.589Z,1.63
2023-05-10T02:25:34.631Z,1.52
2023-05-10T02:27:39.151Z,1.10
2023-05-10T02:29:42.924Z,1.20
2023-05-10T02:31:47.527Z,1.52
2023-05-10T02:33:51.158Z,1.95
2023-05-10T02:35:55.327Z,1.17
2023-05-10T02:38:01.126Z,1.08
2023-05-10T02:40:07.767Z,0.95
2023-05-10T02:42:11.864Z,1.67
2023-05-10T02:44:16.979Z,1.20
2023-05-10T02:46:20.170Z,1.45
2023-05-10T02:48:23.153Z,1.40
2023-05-10T02:50:29.900Z,1.20
2023-05-10T02:52:46.424Z,1.70
2023-05-10T02:54:54.385Z,1.27
2023-05-10T02:57:00.457Z,1.30
2023-05-10T02:59:03.507Z,1.20
2023-05-10T03:01:08.383Z,1.52
2023-05-10T03:03:11.208Z,1.30
2023-05-10T03:05:14.080Z,1.60
2023-05-10T03:07:17.996Z,1.38
2023-05-10T03:09:22.154Z,2.20
2023-05-10T03:13:47.950Z,1.58
2023-05-10T03:15:59.987Z,1.42
2023-05-10T03:18:08.843Z,1.65
2023-05-10T03:20:15.628Z,1.70
2023-05-10T03:22:26.404Z,1.38
2023-05-10T03:24:30.339Z,2.03
2023-05-10T03:26:38.125Z,1.75
2023-05-10T03:28:47.699Z,2.33
2023-05-10T03:30:52.011Z,2.35
2023-05-10T03:32:55.121Z,2.50
2023-05-10T03:34:57.990Z,3.17
2023-05-10T03:37:01.786Z,3.75
2023-05-10T03:39:07.622Z,2.70
2023-05-10T03:41:10.586Z,2.90
2023-05-10T03:43:14.773Z,2.90
2023-05-10T03:45:18.721Z,3.63
2023-05-10T03:47:21.544Z,3.05
2023-05-10T03:49:25.871Z,3.25
2023-05-10T03:51:29.287Z,2.78
2023-05-10T03:53:32.116Z,3.22
2023-05-10T03:55:37.009Z,3.20
2023-05-10T03:57:40.955Z,3.47
2023-05-10T03:59:45.933Z,3.50
2023-05-10T04:01:48.753Z,3.35
2023-05-10T04:03:51.775Z,3.15
2023-05-10T04:06:00.862Z,4.03
2023-05-10T04:08:03.979Z,3.92
2023-05-10T04:10:08.088Z,3.60
2023-05-10T04:12:11.202Z,4.20
2023-05-10T04:14:14.150Z,3.85
2023-05-10T04:16:18.372Z,4.38
2023-05-10T04:18:21.181Z,3.78
2023-05-10T04:20:23.982Z,3.13
2023-05-10T04:22:26.918Z,3.58
2023-05-10T04:24:29.708Z,3.28
2023-05-10T04:26:32.529Z,2.83
2023-05-10T04:28:35.731Z,3.60
2023-05-10T04:30:38.616Z,3.17
2023-05-10T04:32:42.826Z,2.80
2023-05-10T04:34:45.653Z,3.20
2023-05-10T04:36:48.407Z,2.80
2023-05-10T04:38:51.152Z,2.25
2023-05-10T04:40:53.988Z,3.17
2023-05-10T04:42:56.810Z,2.75
2023-05-10T04:44:59.614Z,2.60
2023-05-10T04:47:03.180Z,2.58
2023-05-10T04:49:07.489Z,2.47
2023-05-10T04:51:10.382Z,2.40
2023-05-10T04:53:15.832Z,2.35
2023-05-10T04:55:18.928Z,2.20
2023-05-10T04:57:22.207Z,1.88
2023-05-10T04:59:25.006Z,2.10
2023-05-10T05:01:28.063Z,2.35
2023-05-10T05:03:31.000Z,1.90
2023-05-10T05:05:35.167Z,2.05
2023-05-10T05:07:38.366Z,1.95
2023-05-10T05:09:41.328Z,2.72
2023-05-10T05:11:44.113Z,1.92
2023-05-10T05:13:46.914Z,1.85
2023-05-10T05:15:49.752Z,1.92
2023-05-10T05:17:52.770Z,2.20
2023-05-10T05:19:56.697Z,1.85
2023-05-10T05:22:00.861Z,2.15
2023-05-10T05:24:03.729Z,2.45
2023-05-10T05:26:06.522Z,2.40
2023-05-10T05:28:09.372Z,1.98
2023-05-10T05:30:13.498Z,2.00
2023-05-10T05:32:16.442Z,1.90
2023-05-10T05:34:21.347Z,2.45
2023-05-10T05:36:24.204Z,2.17
2023-05-10T05:38:28.385Z,2.33
2023-05-10T05:40:31.106Z,1.95
2023-05-10T05:42:33.996Z,3.90
2023-05-10T05:44:36.879Z,3.17
2023-05-10T05:46:39.790Z,3.03
2023-05-10T05:48:42.545Z,9.50
2023-05-10T05:50:46.458Z,5.55
2023-05-10T05:52:49.286Z,9.60
2023-05-10T05:54:53.438Z,9.45
2023-05-10T05:56:56.588Z,5.95
2023-05-10T05:58:59.559Z,3.90
2023-05-10T06:01:02.382Z,2.88
2023-05-10T06:03:05.442Z,3.03
2023-05-10T06:05:09.413Z,2.97
2023-05-10T06:07:12.201Z,2.72
2023-05-10T06:09:15.093Z,3.10
2023-05-10T06:11:19.240Z,3.55
2023-05-10T06:13:22.241Z,2.70
2023-05-10T06:15:25.085Z,2.95
2023-05-10T06:17:28.521Z,3.10
2023-05-10T06:19:31.721Z,2.95
2023-05-10T06:21:34.517Z,2.90
2023-05-10T06:23:37.774Z,2.50
2023-05-10T06:25:41.118Z,3.05
2023-05-10T06:27:49.039Z,3.33
2023-05-10T06:30:02.010Z,2.30
2023-05-10T06:32:09.241Z,2.92
2023-05-10T06:34:12.685Z,3.22
2023-05-10T06:36:15.536Z,2.70
2023-05-10T06:38:18.313Z,3.67
2023-05-10T06:40:21.336Z,2.72
2023-05-10T06:42:26.316Z,3.13
2023-05-10T06:44:30.481Z,3.10
2023-05-10T06:46:36.369Z,3.28
2023-05-10T06:48:39.189Z,3.47
2023-05-10T06:50:41.971Z,3.50
2023-05-10T06:52:44.863Z,3.08
2023-05-10T06:54:47.621Z,3.20
2023-05-10T06:56:50.508Z,3.20
2023-05-10T06:58:53.582Z,3.55
2023-05-10T07:01:04.033Z,2.83
2023-05-10T07:03:07.104Z,2.85
2023-05-10T07:05:10.735Z,3.08
2023-05-10T07:07:14.421Z,2.53
2023-05-10T07:09:17.299Z,3.07
2023-05-10T07:11:20.139Z,3.20
2023-05-10T07:13:23.183Z,3.00
2023-05-10T07:15:26.148Z,2.50
2023-05-10T07:17:30.363Z,3.10
2023-05-10T07:19:33.824Z,2.17
2023-05-10T07:21:37.075Z,2.10
2023-05-10T07:23:39.941Z,2.45
2023-05-10T07:25:42.922Z,2.55
2023-05-10T07:27:45.880Z,2.40
2023-05-10T07:29:48.701Z,2.47
2023-05-10T07:31:51.539Z,2.60
2023-05-10T07:33:55.798Z,2.17
2023-05-10T07:35:58.684Z,2.35
2023-05-10T07:38:01.877Z,2.20
2023-05-10T07:40:05.115Z,1.90
2023-05-10T07:42:08.208Z,1.83
2023-05-10T07:44:11.079Z,1.83
2023-05-10T07:46:13.956Z,1.60
2023-05-10T07:48:16.784Z,1.88
2023-05-10T07:50:22.026Z,2.10
2023-05-10T07:52:24.802Z,2.38
2023-05-10T07:54:27.597Z,1.60
2023-05-10T07:56:32.585Z,2.03
2023-05-10T07:58:35.508Z,2.00
2023-05-10T08:00:40.382Z,1.83
2023-05-10T08:02:43.272Z,1.95
2023-05-10T08:04:46.531Z,1.60
2023-05-10T08:06:50.813Z,2.83
2023-05-10T08:08:54.974Z,1.65
2023-05-10T08:10:57.797Z,1.90
2023-05-10T08:13:00.621Z,1.90
2023-05-10T08:15:03.392Z,2.38
2023-05-10T08:17:06.290Z,1.50
2023-05-10T08:19:09.239Z,1.23
2023-05-10T08:21:12.556Z,1.85
2023-05-10T08:23:16.867Z,1.63
2023-05-10T08:25:19.978Z,1.42
2023-05-10T08:27:22.876Z,1.70
2023-05-10T08:29:26.738Z,1.40
2023-05-10T08:31:31.211Z,1.60
2023-05-10T08:33:34.106Z,1.30
2023-05-10T08:35:36.968Z,1.90
2023-05-10T08:37:41.937Z,1.17
2023-05-10T08:39:46.730Z,1.30
2023-05-10T08:41:51.717Z,1.17
2023-05-10T08:43:55.648Z,1.00
2023-05-10T08:46:01.945Z,1.30
2023-05-10T08:48:08.387Z,1.10
2023-05-10T08:50:12.621Z,1.35
2023-05-10T08:52:17.522Z,1.83
2023-05-10T08:54:20.622Z,1.52
2023-05-10T08:56:25.400Z,1.40
2023-05-10T08:58:28.328Z,1.30
2023-05-10T09:00:31.586Z,0.90
2023-05-10T09:02:35.070Z,1.30
2023-05-10T09:04:37.991Z,1.30
2023-05-10T09:06:41.113Z,1.23
2023-05-10T09:08:45.414Z,1.13
2023-05-10T09:10:50.156Z,1.58
2023-05-10T09:12:55.988Z,1.10
2023-05-10T09:15:01.584Z,1.00
2023-05-10T09:17:04.640Z,1.20
2023-05-10T09:19:07.996Z,1.25
2023-05-10T09:21:11.977Z,1.30
2023-05-10T09:23:14.742Z,1.10
2023-05-10T09:25:18.805Z,1.40
2023-05-10T09:27:29.031Z,1.02
2023-05-10T09:29:42.441Z,1.15
2023-05-10T09:31:48.333Z,1.00
2023-05-10T09:33:51.765Z,1.10
2023-05-10T09:35:54.833Z,1.23
2023-05-10T09:37:59.554Z,1.20
2023-05-10T09:40:02.507Z,1.08
2023-05-10T09:42:07.090Z,1.83
2023-05-10T09:46:14.027Z,1.00
2023-05-10T09:48:16.860Z,1.02
2023-05-10T09:50:21.393Z,1.50
2023-05-10T09:54:26.843Z,1.55
2023-05-10T09:56:36.686Z,1.00
2023-05-10T09:58:39.966Z,0.90
2023-05-10T10:00:44.158Z,0.90
2023-05-10T10:02:57.341Z,0.90
2023-05-10T10:05:02.809Z,1.13
2023-05-10T10:07:06.770Z,0.90
2023-05-10T10:09:10.144Z,0.90
2023-05-10T10:11:12.940Z,0.70
2023-05-10T10:13:16.450Z,0.70
2023-05-10T10:15:20.149Z,0.60
2023-05-10T10:17:23.570Z,0.73
2023-05-10T10:19:28.796Z,1.30
2023-05-10T10:21:31.860Z,1.10
2023-05-10T10:23:34.701Z,1.25
2023-05-10T10:25:37.795Z,0.98
2023-05-10T10:27:51.177Z,1.30
2023-05-10T10:30:04.033Z,1.20
2023-05-10T10:32:19.551Z,1.25
2023-05-10T10:34:29.816Z,1.75
2023-05-10T10:36:34.811Z,1.40
2023-05-10T10:38:39.855Z,1.20
2023-05-10T10:40:43.379Z,1.40
2023-05-10T10:42:47.083Z,1.40
2023-05-10T10:44:49.916Z,1.50
2023-05-10T10:47:03.491Z,1.30
2023-05-10T10:49:18.159Z,1.10
2023-05-10T10:51:22.356Z,1.13
2023-05-10T10:53:28.345Z,1.30
2023-05-10T10:55:31.381Z,1.70
2023-05-10T10:57:35.719Z,0.82
2023-05-10T10:59:42.940Z,0.93
2023-05-10T11:01:45.989Z,1.30
2023-05-10T11:04:22.237Z,0.82
2023-05-10T11:06:33.550Z,0.90
2023-05-10T11:08:43.135Z,1.15
2023-05-10T11:11:05.482Z,0.82
2023-05-10T11:13:09.602Z,0.80
2023-05-10T11:15:12.552Z,0.88
2023-05-10T11:17:25.580Z,0.80
2023-05-10T11:19:30.101Z,0.80
2023-05-10T11:21:35.778Z,1.10
2023-05-10T11:26:06.953Z,0.90
2023-05-10T11:28:10.088Z,1.30
2023-05-10T11:30:14.386Z,0.70
2023-05-10T11:34:27.096Z,1.13
2023-05-10T11:36:32.021Z,0.77
2023-05-10T11:38:36.263Z,1.13
2023-05-10T11:40:41.374Z,1.05
2023-05-10T11:42:44.268Z,0.95
2023-05-10T11:44:48.910Z,1.00
2023-05-10T11:46:51.839Z,0.73
2023-05-10T11:48:57.744Z,1.00
2023-05-10T11:51:00.709Z,1.08
2023-05-10T11:53:03.558Z,0.95
2023-05-10T11:55:08.645Z,0.80
2023-05-10T11:57:16.027Z,1.10
2023-05-10T11:59:18.904Z,0.80
2023-05-10T12:01:23.235Z,1.00
2023-05-10T12:03:26.225Z,0.95
2023-05-10T12:05:29.488Z,1.60
2023-05-10T12:07:32.309Z,1.13
2023-05-10T12:09:43.100Z,1.15
2023-05-10T12:11:47.693Z,1.25
2023-05-10T12:13:50.890Z,1.42
2023-05-10T12:15:53.999Z,1.25
2023-05-10T12:17:58.860Z,1.30
2023-05-10T12:20:15.795Z,0.93
2023-05-10T12:22:25.324Z,1.48
2023-05-10T12:24:28.099Z,2.05
2023-05-10T12:26:31.529Z,1.23
2023-05-10T12:28:36.387Z,1.08
2023-05-10T12:30:41.824Z,1.10
2023-05-10T12:32:46.286Z,1.20
2023-05-10T12:36:52.706Z,1.25
2023-05-10T12:39:04.552Z,0.98
2023-05-10T12:41:09.309Z,1.13
2023-05-10T12:43:12.436Z,0.75
2023-05-10T12:45:16.944Z,1.35
2023-05-10T12:47:20.096Z,0.95
2023-05-10T12:49:23.332Z,1.15
2023-05-10T12:51:26.222Z,1.27
2023-05-10T12:53:31.346Z,1.00
2023-05-10T12:55:34.382Z,1.17
2023-05-10T12:57:39.240Z,1.33
2023-05-10T12:59:42.370Z,1.38
2023-05-10T13:01:46.747Z,1.25
2023-05-10T13:03:49.583Z,1.30
2023-05-10T13:05:52.350Z,1.00
2023-05-10T13:07:55.324Z,1.23
2023-05-10T13:09:58.174Z,0.98
2023-05-10T13:12:01.369Z,1.10
2023-05-10T13:14:14.289Z,1.20
2023-05-10T13:16:17.135Z,1.02
2023-05-10T13:18:21.433Z,1.00
2023-05-10T13:20:24.288Z,1.00
2023-05-10T13:22:39.187Z,0.80
2023-05-10T13:24:42.853Z,1.27
2023-05-10T13:26:45.790Z,0.90
2023-05-10T13:28:49.980Z,0.80
2023-05-10T13:30:52.808Z,0.68
2023-05-10T13:32:55.719Z,0.68
2023-05-10T13:34:59.843Z,0.65
2023-05-10T13:37:02.857Z,0.68
2023-05-10T13:39:06.236Z,0.85
2023-05-10T13:41:09.057Z,0.52
2023-05-10T13:43:11.866Z,0.80
2023-05-10T13:45:14.951Z,0.80
2023-05-10T13:47:17.890Z,0.52
2023-05-10T13:49:20.896Z,0.60
2023-05-10T13:51:25.136Z,0.88
2023-05-10T13:53:27.953Z,1.02
2023-05-10T13:55:31.535Z,1.05
2023-05-10T13:57:44.613Z,0.80
2023-05-10T13:59:48.039Z,0.60
2023-05-10T14:01:50.946Z,0.77
2023-05-10T14:03:54.228Z,0.82
2023-05-10T14:05:57.122Z,0.80
2023-05-10T14:08:01.287Z,0.90
2023-05-10T14:10:05.065Z,0.73
2023-05-10T14:12:07.952Z,0.50
2023-05-10T14:14:10.912Z,0.90
2023-05-10T14:16:15.676Z,0.50
2023-05-10T14:18:18.591Z,0.60
2023-05-10T14:20:21.432Z,0.85
2023-05-10T14:22:24.553Z,0.65
2023-05-10T14:24:28.780Z,0.77
2023-05-10T14:26:31.613Z,2.03
2023-05-10T14:28:34.789Z,0.60
2023-05-10T14:30:37.722Z,0.57
2023-05-10T14:32:40.753Z,0.70
2023-05-10T14:34:44.231Z,0.98
2023-05-10T14:36:47.535Z,1.00
2023-05-10T14:38:50.358Z,1.05
2023-05-10T14:40:55.061Z,0.90
2023-05-10T14:42:58.519Z,1.45
2023-05-10T14:45:01.955Z,0.77
2023-05-10T14:47:05.081Z,0.93
2023-05-10T14:49:07.977Z,0.85
2023-05-10T14:51:14.409Z,0.63
2023-05-10T14:53:19.184Z,0.60
2023-05-10T14:55:22.186Z,0.60
2023-05-10T14:57:26.802Z,0.60
2023-05-10T14:59:29.935Z,0.98
2023-05-10T15:01:34.092Z,0.43
2023-05-10T15:03:38.300Z,0.40
2023-05-10T15:05:43.641Z,0.50
2023-05-10T15:07:46.725Z,0.50
2023-05-10T15:09:49.592Z,0.40
2023-05-10T15:11:53.291Z,0.40
2023-05-10T15:13:57.873Z,0.45
2023-05-10T15:16:03.702Z,0.60
2023-05-10T15:18:07.834Z,0.60
2023-05-10T15:20:11.276Z,0.70
2023-05-10T15:22:14.165Z,0.80
2023-05-10T15:24:17.803Z,0.50
2023-05-10T15:26:20.532Z,0.60
2023-05-10T15:28:23.618Z,0.50
2023-05-10T15:30:28.039Z,0.70
2023-05-10T15:32:31.149Z,0.45
2023-05-10T15:34:37.014Z,0.50
2023-05-10T15:36:40.443Z,0.70
2023-05-10T15:38:43.797Z,0.63
2023-05-10T15:40:46.655Z,1.02
2023-05-10T15:42:49.495Z,0.60
2023-05-10T15:44:52.301Z,0.32
2023-05-10T15:46:56.753Z,0.40
2023-05-10T15:51:03.001Z,0.68
2023-05-10T15:53:05.780Z,0.40
2023-05-10T15:55:13.100Z,0.70
2023-05-10T15:57:16.564Z,0.52
2023-05-10T15:59:19.353Z,0.30
2023-05-10T16:01:22.256Z,0.50
2023-05-10T16:03:26.604Z,0.68
2023-05-10T16:07:35.482Z,0.70
2023-05-10T16:09:38.253Z,0.70
2023-05-10T16:11:41.936Z,0.60
2023-05-10T16:13:44.740Z,0.50
2023-05-10T16:15:47.471Z,0.70
2023-05-10T16:17:50.582Z,0.47
2023-05-10T16:19:55.025Z,0.57
2023-05-10T16:21:57.971Z,0.30
2023-05-10T16:24:04.718Z,0.50
2023-05-10T16:26:07.566Z,0.43
2023-05-10T16:28:10.758Z,0.63
2023-05-10T16:30:14.217Z,0.50
2023-05-10T16:32:17.201Z,0.60
2023-05-10T16:34:24.047Z,0.70
2023-05-10T16:36:29.586Z,0.73
2023-05-10T16:38:32.566Z,0.60
2023-05-10T16:40:35.395Z,0.60
2023-05-10T16:42:38.237Z,0.70
2023-05-10T16:44:41.333Z,0.68
2023-05-10T16:46:44.734Z,0.57
2023-05-10T16:48:47.621Z,0.40
2023-05-10T16:50:50.473Z,0.43
2023-05-10T16:52:54.752Z,0.65
2023-05-10T16:54:57.575Z,0.50
2023-05-10T16:57:01.164Z,0.55
2023-05-10T16:59:04.008Z,0.50
2023-05-10T17:01:07.210Z,0.60
2023-05-10T17:03:10.219Z,0.43
2023-05-10T17:05:13.214Z,1.23
2023-05-10T17:07:16.322Z,0.63
2023-05-10T17:09:21.116Z,0.47
2023-05-10T17:11:24.043Z,0.35
2023-05-10T17:13:26.895Z,0.70
2023-05-10T17:15:30.008Z,0.45
2023-05-10T17:17:32.879Z,0.52
2023-05-10T17:19:36.166Z,0.90
2023-05-10T17:21:38.919Z,0.40
2023-05-10T17:23:41.660Z,0.70
2023-05-10T17:25:45.748Z,0.52
2023-05-10T17:27:48.565Z,0.70
2023-05-10T17:29:51.407Z,0.60
2023-05-10T17:31:54.186Z,0.52
2023-05-10T17:33:57.189Z,0.50
2023-05-10T17:36:03.766Z,0.50
2023-05-10T17:38:07.001Z,0.40
2023-05-10T17:40:11.276Z,0.50
2023-05-10T17:42:17.467Z,0.50
2023-05-10T17:44:20.483Z,0.45
2023-05-10T17:46:23.716Z,0.50
2023-05-10T17:48:26.616Z,0.70
2023-05-10T17:50:29.418Z,0.60
2023-05-10T17:52:33.576Z,0.70
2023-05-10T17:54:36.601Z,0.55
2023-05-10T17:56:39.421Z,0.60
2023-05-10T17:58:43.566Z,0.68
2023-05-10T18:00:46.567Z,0.50
2023-05-10T18:02:49.397Z,0.50
2023-05-10T18:04:52.402Z,0.60
2023-05-10T18:07:01.079Z,0.55
2023-05-10T18:09:04.794Z,0.25
2023-05-10T18:11:07.705Z,0.47
2023-05-10T18:13:10.456Z,0.65
2023-05-10T18:15:14.887Z,0.80
2023-05-10T18:19:22.282Z,0.60
2023-05-10T18:21:25.082Z,0.70
2023-05-10T18:23:27.899Z,0.65
2023-05-10T18:25:31.070Z,0.60
2023-05-10T18:27:34.359Z,0.70
2023-05-10T18:29:37.711Z,0.70
2023-05-10T18:31:42.008Z,0.60
2023-05-10T18:33:45.911Z,0.65
2023-05-10T18:35:48.783Z,1.30
2023-05-10T18:37:53.143Z,0.70
2023-05-10T18:39:56.254Z,0.60
2023-05-10T18:41:59.070Z,0.68
2023-05-10T18:44:01.843Z,0.68
2023-05-10T18:46:04.807Z,0.45
2023-05-10T18:48:09.053Z,0.70
2023-05-10T18:50:13.012Z,0.47
2023-05-10T18:52:16.128Z,0.40
2023-05-10T18:54:19.006Z,0.60
2023-05-10T18:56:22.404Z,0.52
2023-05-10T18:58:25.666Z,0.30
2023-05-10T19:00:28.715Z,0.55
2023-05-10T19:02:31.541Z,1.17
2023-05-10T19:04:35.762Z,0.52
2023-05-10T19:06:38.574Z,0.60
2023-05-10T19:08:41.426Z,0.60
2023-05-10T19:10:45.754Z,0.80
2023-05-10T19:12:48.658Z,0.50
2023-05-10T19:14:51.486Z,0.57
2023-05-10T19:16:54.577Z,0.80
2023-05-10T19:18:57.451Z,0.63
2023-05-10T19:21:03.543Z,0.88
2023-05-10T19:23:10.085Z,0.63
2023-05-10T19:25:14.079Z,0.40
2023-05-10T19:27:17.035Z,0.52
2023-05-10T19:29:19.899Z,0.50
2023-05-10T19:31:23.276Z,0.55
2023-05-10T19:33:26.136Z,0.50
2023-05-10T19:35:29.069Z,0.60
2023-05-10T19:37:33.187Z,0.60
2023-05-10T19:39:36.041Z,0.70
2023-05-10T19:41:38.852Z,0.45
2023-05-10T19:43:42.635Z,0.60
2023-05-10T19:45:45.560Z,0.47
2023-05-10T19:47:48.487Z,0.30
2023-05-10T19:49:51.412Z,0.70
2023-05-10T19:51:54.234Z,0.82
2023-05-10T19:53:58.446Z,0.65
2023-05-10T19:56:06.179Z,0.75
2023-05-10T19:58:09.197Z,1.40
2023-05-10T20:00:13.175Z,1.35
2023-05-10T20:02:15.946Z,1.13
2023-05-10T20:04:18.710Z,1.38
2023-05-10T20:06:21.564Z,1.00
2023-05-10T20:08:24.400Z,1.92
2023-05-10T20:10:28.575Z,1.58
2023-05-10T20:12:33.559Z,1.92
2023-05-10T20:14:36.414Z,1.67
2023-05-10T20:16:39.279Z,1.00
2023-05-10T20:18:42.153Z,2.50
2023-05-10T20:20:46.118Z,1.38
2023-05-10T20:22:49.652Z,0.98
2023-05-10T20:24:54.377Z,1.42
2023-05-10T20:27:00.426Z,0.90
2023-05-10T20:29:03.743Z,1.40
2023-05-10T20:31:06.614Z,1.27
2023-05-10T20:33:09.645Z,1.77
2023-05-10T20:35:12.590Z,1.20
2023-05-10T20:37:18.200Z,1.10
2023-05-10T20:39:21.357Z,1.00
2023-05-10T20:41:24.727Z,0.80
2023-05-10T20:43:29.218Z,1.45
2023-05-10T20:45:32.020Z,0.70
2023-05-10T20:47:34.990Z,1.20
2023-05-10T20:49:38.013Z,0.80
2023-05-10T20:51:40.867Z,0.70
2023-05-10T20:53:43.679Z,1.33
2023-05-10T20:55:46.426Z,0.90
2023-05-10T20:57:49.221Z,1.75
2023-05-10T20:59:53.688Z,1.02
2023-05-10T21:01:58.036Z,1.02
2023-05-10T21:04:00.920Z,0.90
2023-05-10T21:06:03.825Z,1.33
2023-05-10T21:08:07.273Z,1.00
2023-05-10T21:10:12.240Z,1.15
2023-05-10T21:12:15.155Z,0.77
2023-05-10T21:14:18.038Z,0.70
2023-05-10T21:16:22.265Z,0.82
2023-05-10T21:18:25.340Z,0.90
2023-05-10T21:20:28.226Z,1.08
2023-05-10T21:22:31.002Z,1.10
2023-05-10T21:24:35.010Z,0.80
2023-05-10T21:26:38.009Z,1.20
2023-05-10T21:28:42.335Z,1.13
2023-05-10T21:30:45.139Z,0.90
2023-05-10T21:32:49.271Z,0.88
2023-05-10T21:34:52.074Z,1.10
2023-05-10T21:36:55.439Z,1.13
2023-05-10T21:38:58.427Z,1.08
2023-05-10T21:41:01.969Z,0.82
2023-05-10T21:43:04.775Z,1.20
2023-05-10T21:45:08.536Z,1.17
2023-05-10T21:47:11.403Z,1.10
2023-05-10T21:49:15.550Z,1.05
2023-05-10T21:51:18.349Z,1.00
2023-05-10T21:53:22.326Z,0.75
2023-05-10T21:55:25.486Z,1.27
2023-05-10T21:57:28.392Z,1.15
2023-05-10T21:59:31.155Z,1.20
2023-05-10T22:01:34.039Z,0.90
2023-05-10T22:03:36.984Z,0.98
2023-05-10T22:05:41.217Z,0.82
2023-05-10T22:07:44.054Z,1.02
2023-05-10T22:09:46.858Z,1.10
2023-05-10T22:11:52.409Z,1.10
2023-05-10T22:13:55.217Z,1.17
2023-05-10T22:15:58.033Z,1.23
2023-05-10T22:18:00.913Z,1.77
2023-05-10T22:20:03.709Z,1.27
2023-05-10T22:22:07.856Z,1.40
2023-05-10T22:24:10.666Z,1.30
2023-05-10T22:26:13.480Z,1.58
2023-05-10T22:28:16.362Z,1.13
2023-05-10T22:30:19.828Z,1.20
2023-05-10T22:32:22.894Z,1.23
2023-05-10T22:34:25.778Z,2.05
2023-05-10T22:36:28.968Z,1.17
2023-05-10T22:38:33.248Z,1.13
2023-05-10T22:40:36.091Z,1.10
2023-05-10T22:42:39.020Z,1.00
2023-05-10T22:44:41.847Z,0.82
2023-05-10T22:46:44.811Z,1.33
2023-05-10T22:48:48.008Z,1.05
2023-05-10T22:50:50.903Z,0.90
2023-05-10T22:52:53.721Z,0.90
2023-05-10T22:54:58.079Z,1.25
2023-05-10T22:57:00.904Z,1.02
2023-05-10T22:59:03.765Z,0.75
2023-05-10T23:01:06.632Z,1.00
2023-05-10T23:03:09.636Z,1.05
2023-05-10T23:05:13.148Z,1.00
2023-05-10T23:07:15.982Z,0.75
2023-05-10T23:09:18.772Z,0.80
2023-05-10T23:11:22.878Z,0.93
2023-05-10T23:13:25.709Z,1.13
2023-05-10T23:15:28.448Z,0.82
2023-05-10T23:17:31.350Z,1.42
2023-05-10T23:19:34.443Z,1.17
2023-05-10T23:21:37.162Z,1.63
2023-05-10T23:23:40.031Z,1.08
2023-05-10T23:25:42.837Z,0.82
2023-05-10T23:27:46.961Z,0.82
2023-05-10T23:29:52.249Z,0.88
2023-05-10T23:31:55.052Z,1.00
2023-05-10T23:33:57.915Z,0.70
2023-05-10T23:36:00.860Z,1.00
2023-05-10T23:38:03.694Z,1.17
2023-05-10T23:40:08.064Z,0.95
2023-05-10T23:42:10.880Z,0.75
2023-05-10T23:44:15.021Z,0.90
2023-05-10T23:46:17.886Z,0.88
2023-05-10T23:48:20.809Z,0.80
2023-05-10T23:50:23.596Z,0.90
2023-05-10T23:52:26.456Z,0.88
2023-05-10T23:54:29.485Z,0.93
2023-05-10T23:56:32.312Z,1.05
2023-05-10T23:58:35.155Z,0.90
